createdAt,value
2023-01-11T00:02:57.680Z,73.43
2023-01-11T00:06:01.771Z,74.00
2023-01-11T00:09:07.109Z,73.79
2023-01-11T00:12:12.535Z,73.72
2023-01-11T00:15:16.839Z,74.10
2023-01-11T00:18:20.692Z,72.90
2023-01-11T00:21:24.466Z,72.96
2023-01-11T00:24:29.710Z,73.54
2023-01-11T00:27:33.779Z,73.32
2023-01-11T00:30:37.671Z,73.30
2023-01-11T00:33:41.240Z,73.28
2023-01-11T00:36:44.941Z,73.91
2023-01-11T00:39:50.347Z,73.68
2023-01-11T00:43:11.442Z,73.25
2023-01-11T00:46:32.283Z,73.26
2023-01-11T00:49:36.490Z,72.73
2023-01-11T00:52:40.177Z,72.65
2023-01-11T00:55:45.319Z,72.28
2023-01-11T00:58:49.156Z,72.79
2023-01-11T01:01:52.793Z,72.32
2023-01-11T01:04:57.003Z,72.03
2023-01-11T01:08:01.028Z,71.41
2023-01-11T01:11:06.162Z,72.38
2023-01-11T01:14:26.749Z,71.98
2023-01-11T01:17:30.496Z,71.65
2023-01-11T01:20:34.081Z,72.14
2023-01-11T01:23:37.793Z,71.24
2023-01-11T01:26:42.993Z,71.81
2023-01-11T01:29:46.541Z,71.67
2023-01-11T01:32:50.122Z,72.14
2023-01-11T01:35:53.791Z,72.04
2023-01-11T01:38:57.518Z,71.86
2023-01-11T01:42:02.617Z,71.86
2023-01-11T01:45:09.073Z,71.01
2023-01-11T01:48:16.679Z,70.51
2023-01-11T01:51:24.829Z,70.65
2023-01-11T01:54:34.859Z,70.71
2023-01-11T01:57:42.897Z,70.08
2023-01-11T02:00:48.180Z,70.79
2023-01-11T02:03:53.657Z,71.25
2023-01-11T02:07:01.052Z,70.94
2023-01-11T02:10:08.579Z,70.48
2023-01-11T02:13:14.661Z,71.15
2023-01-11T02:16:18.336Z,70.63
2023-01-11T02:19:37.249Z,71.53
2023-01-11T02:23:09.194Z,71.58
2023-01-11T02:26:56.081Z,71.19
2023-01-11T02:30:10.483Z,71.04
2023-01-11T02:33:24.598Z,71.60
2023-01-11T02:36:34.921Z,71.18
2023-01-11T02:39:46.460Z,70.48
2023-01-11T02:43:11.570Z,70.34
2023-01-11T02:46:23.495Z,71.10
2023-01-11T02:49:35.919Z,70.92
2023-01-11T02:52:47.883Z,71.14
2023-01-11T02:55:57.289Z,71.37
2023-01-11T02:59:01.881Z,71.10
2023-01-11T03:02:07.158Z,70.67
2023-01-11T03:05:15.876Z,70.50
2023-01-11T03:08:53.092Z,70.04
2023-01-11T03:12:29.919Z,69.70
2023-01-11T03:15:51.125Z,69.01
2023-01-11T03:19:07.908Z,69.17
2023-01-11T03:22:20.071Z,68.53
2023-01-11T03:25:32.285Z,68.42
2023-01-11T03:28:42.920Z,68.30
2023-01-11T03:31:53.663Z,68.02
2023-01-11T03:35:14.715Z,67.32
2023-01-11T03:38:24.277Z,67.29
2023-01-11T03:41:31.284Z,66.60
2023-01-11T03:44:44.491Z,66.60
2023-01-11T03:47:48.234Z,66.87
2023-01-11T03:50:56.861Z,67.83
2023-01-11T03:54:02.257Z,68.79
2023-01-11T03:57:12.103Z,69.59
2023-01-11T04:00:16.412Z,69.99
2023-01-11T04:03:20.055Z,70.41
2023-01-11T04:06:26.231Z,71.45
2023-01-11T04:09:29.911Z,71.27
2023-01-11T04:12:33.594Z,71.94
2023-01-11T04:15:37.143Z,72.20
2023-01-11T04:18:41.438Z,72.00
2023-01-11T04:21:46.574Z,72.13
2023-01-11T04:24:50.371Z,72.86
2023-01-11T04:27:54.032Z,72.88
2023-01-11T04:30:57.683Z,73.09
2023-01-11T04:34:03.228Z,73.65
2023-01-11T04:37:08.438Z,73.96
2023-01-11T04:40:13.321Z,73.92
2023-01-11T04:43:15.882Z,74.39
2023-01-11T04:46:19.652Z,75.19
2023-01-11T04:49:23.153Z,74.88
2023-01-11T04:52:28.315Z,75.24
2023-01-11T04:55:32.153Z,75.60
2023-01-11T04:58:38.261Z,75.31
2023-01-11T05:01:42.040Z,74.72
2023-01-11T05:04:45.830Z,75.43
2023-01-11T05:07:51.586Z,75.08
2023-01-11T05:10:55.260Z,75.54
2023-01-11T05:14:00.258Z,74.95
2023-01-11T05:17:04.002Z,74.29
2023-01-11T05:20:08.482Z,74.27
2023-01-11T05:23:13.736Z,74.05
2023-01-11T05:26:19.585Z,74.14
2023-01-11T05:29:23.242Z,74.97
2023-01-11T05:32:26.982Z,75.11
2023-01-11T05:35:30.720Z,74.88
2023-01-11T05:38:36.129Z,73.99
2023-01-11T05:41:40.072Z,74.93
2023-01-11T05:45:01.130Z,75.46
2023-01-11T05:48:05.318Z,76.00
2023-01-11T05:51:09.098Z,74.74
2023-01-11T05:54:16.329Z,74.82
2023-01-11T05:57:20.188Z,74.97
2023-01-11T06:00:25.016Z,75.13
2023-01-11T06:03:28.889Z,74.81
2023-01-11T06:06:32.712Z,74.35
2023-01-11T06:09:38.074Z,74.23
2023-01-11T06:12:41.872Z,74.40
2023-01-11T06:15:45.603Z,74.24
2023-01-11T06:18:51.469Z,74.11
2023-01-11T06:21:55.467Z,73.21
2023-01-11T06:25:00.687Z,73.64
2023-01-11T06:28:04.981Z,73.10
2023-01-11T06:31:09.418Z,73.18
2023-01-11T06:34:13.351Z,72.39
2023-01-11T06:37:17.091Z,72.83
2023-01-11T06:40:22.552Z,72.34
2023-01-11T06:43:27.120Z,71.80
2023-01-11T06:46:30.924Z,72.24
2023-01-11T06:49:34.660Z,72.30
2023-01-11T06:52:38.521Z,72.53
2023-01-11T06:55:43.791Z,72.23
2023-01-11T06:58:48.671Z,71.69
2023-01-11T07:01:52.714Z,71.60
2023-01-11T07:04:56.525Z,71.29
2023-01-11T07:08:00.443Z,70.93
2023-01-11T07:11:05.785Z,71.57
2023-01-11T07:14:09.870Z,72.59
2023-01-11T07:17:13.783Z,71.74
2023-01-11T07:20:18.111Z,71.37
2023-01-11T07:23:21.931Z,71.36
2023-01-11T07:26:28.547Z,70.43
2023-01-11T07:29:32.431Z,70.79
2023-01-11T07:32:36.761Z,70.93
2023-01-11T07:35:40.654Z,70.40
2023-01-11T07:38:44.482Z,69.62
2023-01-11T07:42:03.533Z,69.41
2023-01-11T07:45:08.326Z,68.29
2023-01-11T07:48:12.746Z,69.73
2023-01-11T07:51:20.769Z,69.33
2023-01-11T07:54:25.063Z,69.84
2023-01-11T07:57:30.551Z,68.38
2023-01-11T08:00:34.455Z,67.96
2023-01-11T08:03:38.360Z,67.97
2023-01-11T08:06:42.979Z,65.90
2023-01-11T08:09:46.830Z,66.17
2023-01-11T08:13:09.766Z,65.47
2023-01-11T08:16:13.576Z,64.48
2023-01-11T08:19:17.348Z,64.44
2023-01-11T08:22:21.141Z,64.41
2023-01-11T08:25:25.454Z,61.97
2023-01-11T08:28:30.711Z,60.20
2023-01-11T08:31:34.431Z,59.06
2023-01-11T08:34:39.156Z,59.79
2023-01-11T08:37:42.871Z,59.05
2023-01-11T08:40:46.724Z,59.45
2023-01-11T08:43:52.049Z,59.30
2023-01-11T08:46:55.924Z,60.32
2023-01-11T08:49:59.851Z,61.01
2023-01-11T08:53:03.642Z,61.70
2023-01-11T08:56:08.342Z,62.00
2023-01-11T08:59:13.901Z,61.76
2023-01-11T09:02:18.044Z,61.64
2023-01-11T09:05:22.612Z,61.37
2023-01-11T09:08:27.226Z,61.95
2023-01-11T09:11:48.432Z,62.01
2023-01-11T09:14:53.660Z,61.94
2023-01-11T09:17:58.012Z,61.26
2023-01-11T09:21:01.821Z,61.50
2023-01-11T09:24:06.172Z,61.58
2023-01-11T09:27:11.843Z,61.44
2023-01-11T09:30:20.702Z,60.47
2023-01-11T09:33:24.728Z,60.36
2023-01-11T09:36:29.325Z,59.96
2023-01-11T09:39:34.324Z,59.65
2023-01-11T09:42:41.158Z,59.28
2023-01-11T09:45:51.271Z,58.58
2023-01-11T09:48:59.937Z,58.23
2023-01-11T09:52:17.302Z,58.91
2023-01-11T09:55:28.902Z,58.96
2023-01-11T09:58:46.879Z,58.56
2023-01-11T10:02:01.728Z,59.64
2023-01-11T10:05:38.705Z,60.38
2023-01-11T10:18:25.684Z,60.31
2023-01-11T10:19:42.509Z,60.47
2023-01-11T10:22:49.908Z,60.49
2023-01-11T10:25:58.981Z,60.12
2023-01-11T10:29:30.338Z,61.35
2023-01-11T10:32:54.360Z,61.24
2023-01-11T10:36:19.277Z,61.20
2023-01-11T10:39:50.811Z,60.10
2023-01-11T10:43:03.576Z,58.78
2023-01-11T10:46:11.515Z,57.55
2023-01-11T10:49:30.542Z,56.27
2023-01-11T10:52:41.979Z,56.75
2023-01-11T10:55:53.442Z,55.79
2023-01-11T10:59:13.496Z,56.20
2023-01-11T11:02:30.140Z,55.47
2023-01-11T11:05:43.953Z,55.78
2023-01-11T11:08:59.231Z,56.85
2023-01-11T11:12:10.091Z,57.20
2023-01-11T11:15:23.543Z,57.28
2023-01-11T11:18:27.321Z,57.74
2023-01-11T11:21:39.543Z,57.93
2023-01-11T11:24:48.833Z,58.33
2023-01-11T11:27:57.261Z,58.22
2023-01-11T11:31:04.432Z,58.38
2023-01-11T11:34:10.492Z,58.58
2023-01-11T11:37:25.851Z,58.58
2023-01-11T11:40:34.091Z,59.00
2023-01-11T11:43:38.925Z,58.14
2023-01-11T11:46:43.123Z,58.25
2023-01-11T11:49:47.769Z,58.17
2023-01-11T11:52:53.747Z,58.10
2023-01-11T11:55:59.601Z,57.83
2023-01-11T11:59:10.056Z,57.90
2023-01-11T12:02:25.620Z,57.40
2023-01-11T12:05:29.973Z,57.18
2023-01-11T12:08:36.919Z,57.47
2023-01-11T12:11:43.551Z,57.35
2023-01-11T12:15:08.261Z,57.43
2023-01-11T12:18:27.567Z,57.50
2023-01-11T12:21:31.643Z,57.80
2023-01-11T12:24:35.512Z,58.41
2023-01-11T12:27:48.461Z,58.38
2023-01-11T12:31:00.064Z,58.52
2023-01-11T12:34:18.050Z,59.40
2023-01-11T12:37:34.438Z,59.29
2023-01-11T12:40:45.331Z,58.97
2023-01-11T12:44:03.092Z,58.91
2023-01-11T12:47:27.194Z,59.44
2023-01-11T12:50:36.902Z,59.15
2023-01-11T12:54:20.243Z,58.92
2023-01-11T12:57:30.540Z,58.41
2023-01-11T13:00:57.300Z,59.15
2023-01-11T13:04:34.536Z,58.99
2023-01-11T13:07:56.140Z,58.27
2023-01-11T13:11:09.835Z,58.18
2023-01-11T13:14:40.492Z,58.17
2023-01-11T13:17:52.635Z,58.23
2023-01-11T13:21:03.303Z,58.06
2023-01-11T13:24:13.951Z,58.16
2023-01-11T13:27:22.651Z,57.78
2023-01-11T13:30:27.990Z,57.70
2023-01-11T13:33:34.067Z,57.83
2023-01-11T13:36:45.797Z,57.91
2023-01-11T13:39:55.641Z,58.36
2023-01-11T13:43:05.486Z,58.11
2023-01-11T13:46:17.696Z,58.09
2023-01-11T13:49:45.182Z,58.13
2023-01-11T13:53:00.256Z,57.65
2023-01-11T13:56:13.829Z,57.40
2023-01-11T13:59:26.916Z,57.45
2023-01-11T14:02:40.820Z,58.54
2023-01-11T14:05:55.462Z,59.19
2023-01-11T14:09:32.400Z,60.02
2023-01-11T14:12:52.054Z,59.73
2023-01-11T14:16:01.323Z,60.13
2023-01-11T14:19:12.379Z,60.10
2023-01-11T14:22:26.070Z,60.56
2023-01-11T14:25:37.141Z,60.80
2023-01-11T14:28:51.767Z,61.16
2023-01-11T14:32:20.170Z,61.71
2023-01-11T14:35:59.130Z,62.20
2023-01-11T14:39:23.890Z,62.34
2023-01-11T14:42:59.068Z,63.25
2023-01-11T14:46:51.030Z,63.50
2023-01-11T14:50:12.523Z,64.33
2023-01-11T14:53:21.830Z,64.15
2023-01-11T14:56:49.065Z,64.58
2023-01-11T14:59:54.331Z,65.06
2023-01-11T15:03:31.150Z,65.60
2023-01-11T15:06:54.439Z,65.62
2023-01-11T15:10:00.308Z,66.59
2023-01-11T15:13:07.930Z,67.29
2023-01-11T15:16:39.892Z,68.07
2023-01-11T15:19:45.359Z,68.39
2023-01-11T15:22:57.520Z,68.67
2023-01-11T15:26:03.455Z,69.42
2023-01-11T15:29:07.148Z,68.84
2023-01-11T15:32:20.509Z,69.63
2023-01-11T15:35:42.372Z,69.78
2023-01-11T15:38:53.892Z,69.14
2023-01-11T15:42:23.933Z,68.73
2023-01-11T15:46:19.437Z,67.80
2023-01-11T15:50:17.765Z,67.50
2023-01-11T15:53:51.715Z,66.81
2023-01-11T15:57:15.886Z,68.06
2023-01-11T16:00:44.115Z,67.20
2023-01-11T16:04:05.484Z,67.80
2023-01-11T16:07:19.609Z,67.80
2023-01-11T16:10:46.633Z,68.58
2023-01-11T16:14:04.179Z,68.99
2023-01-11T16:17:13.583Z,68.33
2023-01-11T16:20:25.788Z,68.39
2023-01-11T16:23:33.097Z,68.76
2023-01-11T16:26:39.422Z,68.74
2023-01-11T16:29:43.150Z,67.79
2023-01-11T16:32:46.852Z,67.59
2023-01-11T16:35:50.854Z,67.62
2023-01-11T16:39:02.886Z,68.06
2023-01-11T16:42:08.196Z,68.52
2023-01-11T16:45:16.600Z,68.12
2023-01-11T16:48:21.955Z,68.74
2023-01-11T16:51:25.637Z,68.83
2023-01-11T16:54:33.733Z,69.00
2023-01-11T16:57:42.136Z,68.81
2023-01-11T17:00:58.986Z,69.00
2023-01-11T17:04:04.959Z,68.97
2023-01-11T17:07:14.751Z,69.91
2023-01-11T17:10:24.981Z,69.70
2023-01-11T17:14:01.971Z,70.79
2023-01-11T17:17:08.433Z,70.36
2023-01-11T17:20:20.119Z,70.94
2023-01-11T17:23:23.931Z,71.66
2023-01-11T17:26:32.341Z,72.55
2023-01-11T17:29:39.527Z,72.28
2023-01-11T17:32:45.792Z,72.38
2023-01-11T17:35:49.538Z,72.46
2023-01-11T17:38:55.689Z,73.19
2023-01-11T17:42:19.861Z,73.31
2023-01-11T17:45:26.441Z,73.00
2023-01-11T17:48:31.202Z,73.59
2023-01-11T17:51:36.453Z,73.32
2023-01-11T17:54:40.389Z,73.91
2023-01-11T17:57:46.232Z,73.83
2023-01-11T18:01:19.694Z,74.53
2023-01-11T18:04:24.555Z,74.92
2023-01-11T18:07:28.321Z,74.04
2023-01-11T18:10:37.522Z,74.33
2023-01-11T18:13:43.006Z,74.59
2023-01-11T18:16:58.220Z,73.74
2023-01-11T18:20:03.162Z,73.67
2023-01-11T18:23:20.060Z,73.70
2023-01-11T18:26:32.153Z,73.22
2023-01-11T18:29:53.539Z,73.95
2023-01-11T18:32:57.730Z,73.12
2023-01-11T18:36:03.371Z,73.27
2023-01-11T18:39:11.880Z,73.03
2023-01-11T18:42:19.402Z,73.44
2023-01-11T18:45:25.138Z,73.86
2023-01-11T18:48:28.757Z,73.31
2023-01-11T18:51:37.352Z,73.05
2023-01-11T18:54:41.363Z,72.92
2023-01-11T18:57:45.101Z,71.98
2023-01-11T19:00:50.301Z,72.58
2023-01-11T19:03:54.070Z,73.39
2023-01-11T19:06:57.843Z,74.14
2023-01-11T19:10:01.583Z,74.95
2023-01-11T19:13:05.290Z,75.22
2023-01-11T19:16:11.113Z,75.17
2023-01-11T19:19:15.083Z,75.79
2023-01-11T19:22:18.831Z,75.63
2023-01-11T19:25:22.858Z,74.82
2023-01-11T19:28:26.441Z,74.84
2023-01-11T19:31:31.907Z,77.05
2023-01-11T19:34:35.891Z,75.87
2023-01-11T19:37:39.921Z,75.83
2023-01-11T19:40:43.582Z,75.57
2023-01-11T19:43:47.468Z,76.12
2023-01-11T19:47:00.446Z,75.16
2023-01-11T19:50:13.231Z,74.78
2023-01-11T19:53:17.012Z,75.68
2023-01-11T19:56:20.810Z,75.83
2023-01-11T19:59:24.484Z,75.66
2023-01-11T20:02:29.655Z,75.71
2023-01-11T20:05:33.861Z,75.70
2023-01-11T20:08:38.698Z,76.90
2023-01-11T20:11:42.404Z,76.56
2023-01-11T20:14:46.533Z,76.36
2023-01-11T20:17:51.650Z,75.44
2023-01-11T20:20:58.423Z,76.12
2023-01-11T20:24:02.623Z,76.36
2023-01-11T20:27:06.415Z,76.18
2023-01-11T20:30:11.699Z,75.47
2023-01-11T20:33:16.828Z,75.09
2023-01-11T20:36:20.677Z,75.52
2023-01-11T20:39:25.649Z,75.66
2023-01-11T20:42:29.320Z,76.55
2023-01-11T20:45:33.020Z,77.20
2023-01-11T20:48:38.044Z,75.97
2023-01-11T20:51:42.901Z,75.69
2023-01-11T20:54:46.641Z,76.70
2023-01-11T20:57:51.590Z,77.54
2023-01-11T21:00:55.286Z,78.32
2023-01-11T21:04:02.447Z,78.54
2023-01-11T21:07:06.285Z,79.09
2023-01-11T21:10:10.997Z,79.85
2023-01-11T21:13:14.789Z,80.16
2023-01-11T21:16:18.830Z,78.87
2023-01-11T21:19:24.365Z,78.40
2023-01-11T21:22:28.701Z,78.70
2023-01-11T21:25:35.290Z,79.12
2023-01-11T21:28:39.621Z,79.77
2023-01-11T21:31:43.377Z,79.77
2023-01-11T21:34:48.639Z,79.87
2023-01-11T21:37:52.431Z,79.33
2023-01-11T21:40:56.019Z,79.19
2023-01-11T21:43:59.761Z,78.89
2023-01-11T21:47:04.695Z,78.24
2023-01-11T21:50:11.791Z,79.26
2023-01-11T21:53:15.499Z,79.40
2023-01-11T21:56:19.124Z,79.40
2023-01-11T21:59:23.417Z,78.98
2023-01-11T22:02:27.110Z,80.18
2023-01-11T22:05:32.370Z,78.60
2023-01-11T22:08:37.080Z,78.76
2023-01-11T22:11:41.226Z,79.47
2023-01-11T22:14:45.849Z,79.94
2023-01-11T22:17:49.581Z,79.98
2023-01-11T22:20:54.958Z,79.70
2023-01-11T22:24:00.629Z,80.64
2023-01-11T22:27:04.459Z,80.25
2023-01-11T22:30:09.523Z,81.04
2023-01-11T22:33:13.313Z,80.75
2023-01-11T22:36:19.039Z,80.43
2023-01-11T22:39:24.270Z,80.86
2023-01-11T22:42:28.010Z,80.28
2023-01-11T22:45:31.749Z,80.91
2023-01-11T22:48:35.650Z,80.78
2023-01-11T22:51:41.992Z,80.41
2023-01-11T22:54:45.730Z,80.87
2023-01-11T22:57:49.468Z,80.69
2023-01-11T23:00:53.180Z,80.73
2023-01-11T23:03:57.936Z,80.13
2023-01-11T23:07:03.224Z,80.45
2023-01-11T23:10:08.835Z,80.35
2023-01-11T23:13:30.013Z,79.44
2023-01-11T23:16:34.484Z,80.63
2023-01-11T23:19:40.483Z,80.05
2023-01-11T23:22:45.665Z,80.67
2023-01-11T23:25:49.406Z,79.63
2023-01-11T23:28:53.226Z,79.28
2023-01-11T23:31:57.101Z,78.53
2023-01-11T23:35:00.889Z,78.52
2023-01-11T23:38:06.066Z,78.21
2023-01-11T23:41:27.974Z,77.58
2023-01-11T23:44:31.916Z,77.23
2023-01-11T23:47:35.566Z,77.44
2023-01-11T23:50:39.265Z,76.11
2023-01-11T23:53:44.491Z,76.13
2023-01-11T23:56:48.325Z,75.63
2023-01-11T23:59:52.230Z,75.42
